Terminal Aerodrome Forecast
Issued by NWS

Home | Current Version | Previous Version | Text Only | Print | Product List | Glossary On
Versions: 1 2 3 4 5 6 7 8 9 10 11 12 13 14 15 16 17 18 19 20 21 22 23 24 25 26 27 28 29 30
000
FTUS45 KREV 062320
TAFTRK
TAF
KTRK 062320Z 0700/0724 18012G22KT P6SM SCT050 BKN090
     FM070500 20018G26KT P6SM VCSH SCT035 BKN060
     FM071200 19016G28KT P6SM -RA SCT025 BKN060=

USA.gov is the U.S. government's official web portal to all federal, state and local government web resources and services.